Time;durP1;ratioP1;P1;durP2;ratioP2;P2;SDS_P1;SDS_P2;PMS_P1;PMS_P2;Temp;Humidity;BMP_temperature;BMP_pressure;BME280_temperature;BME280_humidity;BME280_pressure;Samples;Min_cycle;Max_cycle;Signal;HPM_P1;HPM_P2
2021/08/17 00:01:18;;;;;;;16.95;8.68;;;742.40;1356.80;;;;;;5094316;28;20024;-74
2021/08/17 00:03:43;;;;;;;17.77;9.57;;;742.40;1356.80;;;;;;5093900;28;20490;-75
2021/08/17 00:06:09;;;;;;;14.73;8.65;;;742.40;1356.80;;;;;;5093899;28;20034;-75
2021/08/17 00:08:35;;;;;;;15.95;8.18;;;742.40;1356.80;;;;;;5092653;28;20059;-75
2021/08/17 00:11:01;;;;;;;20.35;8.18;;;742.40;1356.80;;;;;;5093847;28;20055;-75
2021/08/17 00:13:27;;;;;;;20.40;8.40;;;742.40;1331.20;;;;;;5093741;28;20094;-75
2021/08/17 00:15:53;;;;;;;17.58;7.20;;;742.40;1356.80;;;;;;5093493;28;20028;-75
2021/08/17 00:18:19;;;;;;;14.20;7.05;;;742.40;1331.20;;;;;;5093763;28;20434;-74
2021/08/17 00:20:45;;;;;;;14.60;7.75;;;742.40;1331.20;;;;;;5093741;28;20024;-76
2021/08/17 00:23:11;;;;;;;18.90;7.68;;;742.40;1331.20;;;;;;5093642;28;20020;-74
2021/08/17 00:25:42;;;;;;;13.38;7.55;;;717.70;1305.60;;;;;;5092414;28;20024;-76
2021/08/17 00:28:09;;;;;;;16.63;7.95;;;717.70;1305.60;;;;;;5093736;28;20373;-76
2021/08/17 00:30:35;;;;;;;14.40;7.85;;;717.70;1305.60;;;;;;5093922;28;20028;-75
2021/08/17 00:33:00;;;;;;;12.50;6.85;;;717.60;1331.20;;;;;;5092305;28;20077;-75
2021/08/17 00:35:26;;;;;;;12.57;7.05;;;717.60;1331.20;;;;;;5092349;28;20031;-75
2021/08/17 00:37:52;;;;;;;12.93;7.63;;;717.50;1331.20;;;;;;5093603;28;20407;-77
2021/08/17 00:40:18;;;;;;;11.98;7.88;;;717.50;1331.20;;;;;;5093554;28;20027;-75
2021/08/17 00:42:46;;;;;;;13.50;7.07;;;717.40;1331.20;;;;;;5093734;28;20047;-75
2021/08/17 00:45:24;;;;;;;18.73;7.07;;;717.40;1305.60;;;;;;5092145;28;20028;-75
2021/08/17 00:47:52;;;;;;;13.98;7.00;;;717.40;1331.20;;;;;;5093459;28;20074;-75
2021/08/17 00:50:20;;;;;;;14.50;7.32;;;717.30;1305.60;;;;;;5093457;28;20031;-75
2021/08/17 00:52:47;;;;;;;20.13;7.72;;;717.40;1305.60;;;;;;5093380;28;20107;-75
2021/08/17 00:55:14;;;;;;;14.52;7.05;;;717.30;1331.20;;;;;;5092103;28;20025;-75
2021/08/17 00:57:41;;;;;;;162.35;14.48;;;717.30;1305.60;;;;;;5093338;28;20032;-73
2021/08/17 01:00:12;;;;;;;31.92;7.63;;;717.20;1305.60;;;;;;5092098;28;20051;-75
2021/08/17 01:02:37;;;;;;;15.23;6.55;;;717.10;1305.60;;;;;;5093317;28;20036;-74
2021/08/17 01:05:05;;;;;;;17.80;7.38;;;717.20;1280.00;;;;;;5093243;28;20601;-74
2021/08/17 01:07:32;;;;;;;20.65;8.23;;;717.10;1280.00;;;;;;5093189;28;20024;-75
2021/08/17 01:09:58;;;;;;;16.85;8.00;;;717.20;1254.40;;;;;;5093253;28;20027;-75
2021/08/17 01:12:25;;;;;;;15.27;6.75;;;717.20;1228.80;;;;;;5091773;28;20052;-76
2021/08/17 01:14:51;;;;;;;16.15;7.22;;;716.80;1228.80;;;;;;5093242;28;20024;-76
2021/08/17 01:17:18;;;;;;;13.43;7.43;;;717.20;1228.80;;;;;;5092015;28;20021;-76
2021/08/17 01:19:45;;;;;;;14.25;7.38;;;717.30;1228.80;;;;;;5091954;28;20107;-76
2021/08/17 01:22:11;;;;;;;19.30;7.88;;;717.30;1228.80;;;;;;5093153;28;20092;-75
2021/08/17 01:24:37;;;;;;;14.60;7.28;;;717.20;1228.80;;;;;;5093085;28;20032;-74
2021/08/17 01:27:04;;;;;;;21.45;7.15;;;717.30;1228.80;;;;;;5093601;28;20023;-74
2021/08/17 01:29:30;;;;;;;14.60;6.95;;;717.30;1228.80;;;;;;5095620;28;20028;-76
2021/08/17 01:31:57;;;;;;;13.68;6.80;;;717.30;1228.80;;;;;;5096958;28;20025;-75
2021/08/17 01:34:24;;;;;;;16.90;7.03;;;717.20;1254.40;;;;;;5095480;28;20028;-74
2021/08/17 01:36:50;;;;;;;21.90;7.32;;;717.20;1280.00;;;;;;5096818;28;20046;-74
2021/08/17 01:39:16;;;;;;;20.38;6.78;;;717.20;1305.60;;;;;;5095504;28;20449;-76
2021/08/17 01:41:44;;;;;;;16.27;6.85;;;717.00;1331.20;;;;;;5095336;28;20150;-74
2021/08/17 01:44:12;;;;;;;63.28;7.47;;;716.80;1356.80;;;;;;5096606;28;20028;-76
2021/08/17 01:46:41;;;;;;;59.47;7.22;;;692.00;1382.40;;;;;;5096667;28;20020;-76
2021/08/17 01:49:07;;;;;;;30.88;5.30;;;691.80;1433.60;;;;;;5096499;28;20020;-75
2021/08/17 01:51:34;;;;;;;27.40;5.38;;;691.80;1433.60;;;;;;5096752;28;20074;-75
2021/08/17 01:54:05;;;;;;;30.05;4.35;;;691.80;1459.20;;;;;;5096405;28;20062;-76
2021/08/17 01:56:31;;;;;;;17.58;4.13;;;691.50;1484.80;;;;;;5095176;28;20020;-75
2021/08/17 01:58:58;;;;;;;11.52;3.67;;;691.50;1484.80;;;;;;5096311;28;20028;-76
2021/08/17 02:01:24;;;;;;;26.75;4.35;;;691.50;1484.80;;;;;;5096329;28;20047;-75
2021/08/17 02:03:50;;;;;;;32.22;4.10;;;691.40;1484.80;;;;;;5094856;28;20089;-75
2021/08/17 02:06:16;;;;;;;27.10;3.60;;;691.40;1484.80;;;;;;5096540;28;20099;-75
2021/08/17 02:08:42;;;;;;;29.48;3.47;;;691.20;1510.40;;;;;;5096461;28;20028;-76
2021/08/17 02:11:08;;;;;;;35.78;4.53;;;691.30;1510.40;;;;;;5096061;28;20032;-76
2021/08/17 02:13:34;;;;;;;28.00;4.30;;;691.20;1510.40;;;;;;5095928;28;20051;-73
2021/08/17 02:16:01;;;;;;;24.65;4.57;;;691.20;1510.40;;;;;;5096001;28;20012;-76
2021/08/17 02:18:31;;;;;;;16.73;3.38;;;666.50;1510.40;;;;;;5094659;28;20032;-75
2021/08/17 02:20:59;;;;;;;14.60;3.17;;;666.50;1510.40;;;;;;5095964;28;20027;-76
2021/08/17 02:23:26;;;;;;;9.65;3.42;;;666.40;1536.00;;;;;;5094604;28;20046;-74
2021/08/17 02:25:53;;;;;;;10.65;3.33;;;666.30;1561.60;;;;;;5094534;28;20484;-76
2021/08/17 02:28:19;;;;;;;14.98;3.65;;;666.20;1561.60;;;;;;5095763;28;20046;-75
2021/08/17 02:30:46;;;;;;;11.52;3.20;;;;;;;;;;5095688;28;20086;-74
2021/08/17 02:33:13;;;;;;;13.05;3.75;;;;;;;;;;5094536;28;20024;-74
2021/08/17 02:35:40;;;;;;;10.13;3.25;;;666.30;1561.60;;;;;;5094399;28;20053;-74
2021/08/17 02:38:05;;;;;;;198.13;12.20;;;666.10;1561.60;;;;;;5095576;28;20032;-75
2021/08/17 02:40:32;;;;;;;18.40;2.70;;;665.80;1612.80;;;;;;5094978;28;20039;-75
2021/08/17 02:42:58;;;;;;;9.52;2.40;;;665.70;1638.40;;;;;;5094222;28;20035;-75
2021/08/17 02:45:24;;;;;;;129.60;8.35;;;640.90;1612.80;;;;;;5094109;28;20028;-75
2021/08/17 02:48:01;;;;;;;11.13;2.30;;;640.70;1638.40;;;;;;5095386;28;20035;-74
2021/08/17 02:50:28;;;;;;;10.77;2.75;;;640.70;1638.40;;;;;;5094127;28;20145;-75
2021/08/17 02:52:54;;;;;;;10.27;2.25;;;640.80;1612.80;;;;;;5095310;28;20481;-73
2021/08/17 02:55:21;;;;;;;10.02;2.38;;;665.60;1638.40;;;;;;5094011;28;20028;-74
2021/08/17 02:57:52;;;;;;;10.00;2.40;;;640.70;1612.80;;;;;;5093974;28;20031;-75
2021/08/17 03:00:19;;;;;;;8.07;2.65;;;640.80;1587.20;;;;;;5095297;28;20443;-73
2021/08/17 03:02:45;;;;;;;7.47;1.98;;;640.90;1587.20;;;;;;5093881;28;20369;-74
2021/08/17 03:05:12;;;;;;;44.70;4.00;;;640.70;1587.20;;;;;;5095401;28;20032;-74
2021/08/17 03:07:47;;;;;;;11.10;2.17;;;640.70;1587.20;;;;;;5095127;28;20024;-74
2021/08/17 03:10:13;;;;;;;5.28;2.20;;;640.70;1587.20;;;;;;5095148;28;20020;-74
2021/08/17 03:12:39;;;;;;;9.50;2.20;;;640.70;1561.60;;;;;;5094691;28;20059;-75
2021/08/17 03:15:06;;;;;;;4.07;2.33;;;640.70;1561.60;;;;;;5095139;28;20024;-75
2021/08/17 03:17:33;;;;;;;9.43;2.15;;;640.50;1587.20;;;;;;5094798;28;20024;-76
2021/08/17 03:19:59;;;;;;;7.78;2.22;;;640.50;1587.20;;;;;;5094714;28;20016;-76
2021/08/17 03:22:25;;;;;;;8.60;2.20;;;640.50;1561.60;;;;;;5095265;28;20028;-75
2021/08/17 03:24:51;;;;;;;10.63;2.30;;;640.30;1561.60;;;;;;5094573;28;20048;-75
2021/08/17 03:27:16;;;;;;;6.80;2.65;;;640.20;1561.60;;;;;;5094606;28;20465;-74
2021/08/17 03:29:42;;;;;;;4.75;2.60;;;640.30;1536.00;;;;;;5094621;28;20027;-75
2021/08/17 03:32:08;;;;;;;11.65;3.00;;;640.30;1536.00;;;;;;5093293;28;20017;-74
2021/08/17 03:34:34;;;;;;;4.78;2.72;;;640.30;1536.00;;;;;;5094489;28;20024;-74
2021/08/17 03:37:00;;;;;;;7.35;2.90;;;640.20;1536.00;;;;;;5093161;28;20577;-73
2021/08/17 03:39:26;;;;;;;13.00;2.92;;;640.00;1561.60;;;;;;5094369;28;20031;-75
2021/08/17 03:41:52;;;;;;;8.38;2.95;;;615.30;1536.00;;;;;;5094393;28;20020;-75
2021/08/17 03:44:18;;;;;;;34.72;3.83;;;640.00;1536.00;;;;;;5094483;28;20032;-74
2021/08/17 03:46:44;;;;;;;10.43;3.28;;;615.20;1510.40;;;;;;5094552;28;20063;-75
2021/08/17 03:49:09;;;;;;;7.95;3.28;;;615.30;1484.80;;;;;;5092965;28;20031;-74
2021/08/17 03:51:35;;;;;;;10.48;3.65;;;615.20;1484.80;;;;;;5093493;28;20380;-74
2021/08/17 03:54:01;;;;;;;11.82;3.33;;;615.20;1484.80;;;;;;5094169;28;20107;-74
2021/08/17 03:56:27;;;;;;;12.60;3.28;;;615.00;1484.80;;;;;;5094124;28;20464;-74
2021/08/17 03:58:53;;;;;;;8.02;3.30;;;615.10;1459.20;;;;;;5092808;28;20024;-76
2021/08/17 04:01:20;;;;;;;6.25;3.58;;;615.00;1484.80;;;;;;5094329;28;20020;-75
2021/08/17 04:03:46;;;;;;;11.35;3.33;;;615.10;1484.80;;;;;;5092690;28;20028;-75
2021/08/17 04:06:11;;;;;;;9.50;3.38;;;615.10;1484.80;;;;;;5092693;28;20074;-75
2021/08/17 04:08:37;;;;;;;9.32;3.45;;;615.20;1459.20;;;;;;5094027;28;20472;-74
2021/08/17 04:11:04;;;;;;;12.35;3.40;;;615.00;1484.80;;;;;;5092591;28;20031;-75
2021/08/17 04:13:30;;;;;;;7.50;3.15;;;615.00;1484.80;;;;;;5093699;28;20066;-74
2021/08/17 04:15:56;;;;;;;7.05;2.97;;;615.10;1484.80;;;;;;5094088;28;20427;-75
2021/08/17 04:18:21;;;;;;;8.77;3.40;;;615.10;1510.40;;;;;;5094078;28;20099;-73
2021/08/17 04:20:47;;;;;;;6.07;3.38;;;615.10;1510.40;;;;;;5093771;28;20055;-75
2021/08/17 04:23:13;;;;;;;7.00;3.28;;;615.10;1536.00;;;;;;5092367;28;20096;-74
2021/08/17 04:25:39;;;;;;;7.38;3.25;;;614.80;1587.20;;;;;;5093666;28;20035;-76
2021/08/17 04:28:05;;;;;;;5.28;3.03;;;614.90;1561.60;;;;;;5093701;28;20024;-75
2021/08/17 04:30:31;;;;;;;5.65;3.45;;;615.00;1561.60;;;;;;5093995;28;20153;-74
2021/08/17 04:32:57;;;;;;;6.97;3.97;;;614.80;1561.60;;;;;;5093874;28;20021;-76
2021/08/17 04:35:23;;;;;;;9.90;3.47;;;614.90;1536.00;;;;;;5093608;28;20027;-74
2021/08/17 04:37:50;;;;;;;7.10;3.50;;;615.00;1536.00;;;;;;5093843;28;20025;-75
2021/08/17 04:40:16;;;;;;;5.43;3.17;;;615.00;1536.00;;;;;;5093655;28;20016;-73
2021/08/17 04:42:42;;;;;;;7.88;3.47;;;615.00;1536.00;;;;;;5092205;28;20035;-75
2021/08/17 04:45:08;;;;;;;9.18;3.60;;;615.10;1536.00;;;;;;5093385;28;20064;-75
2021/08/17 04:47:34;;;;;;;8.02;3.50;;;614.90;1536.00;;;;;;5093445;28;20025;-74
2021/08/17 04:50:01;;;;;;;14.52;3.92;;;614.90;1536.00;;;;;;5093509;28;20463;-76
2021/08/17 04:52:26;;;;;;;8.27;4.07;;;614.90;1536.00;;;;;;5093547;28;20028;-74
2021/08/17 04:54:52;;;;;;;23.13;4.30;;;614.90;1536.00;;;;;;5093495;28;20031;-77
2021/08/17 04:57:18;;;;;;;8.35;3.85;;;614.90;1536.00;;;;;;5093498;28;20031;-77
2021/08/17 04:59:44;;;;;;;10.18;3.80;;;614.90;1536.00;;;;;;5093342;28;20476;-76
2021/08/17 05:02:10;;;;;;;9.18;3.92;;;614.80;1561.60;;;;;;5092823;28;20020;-75
2021/08/17 05:04:36;;;;;;;9.88;3.50;;;614.90;1536.00;;;;;;5097365;28;20031;-76
2021/08/17 05:07:02;;;;;;;8.13;3.50;;;614.90;1536.00;;;;;;5097400;28;20028;-76
2021/08/17 05:09:28;;;;;;;9.73;3.72;;;614.90;1561.60;;;;;;5097352;28;20524;-75
2021/08/17 05:11:54;;;;;;;8.20;3.80;;;614.90;1561.60;;;;;;5096942;28;20024;-76
2021/08/17 05:14:20;;;;;;;7.70;3.83;;;614.80;1561.60;;;;;;5096022;28;20384;-77
2021/08/17 05:16:46;;;;;;;11.57;4.30;;;614.70;1561.60;;;;;;5097213;28;20400;-75
2021/08/17 05:19:11;;;;;;;9.25;3.95;;;614.80;1561.60;;;;;;5097408;28;20027;-74
2021/08/17 05:21:37;;;;;;;10.07;3.63;;;614.90;1561.60;;;;;;5097220;28;20020;-74
2021/08/17 05:24:04;;;;;;;6.07;4.18;;;614.90;1536.00;;;;;;5095633;28;20073;-75
2021/08/17 05:26:30;;;;;;;7.15;3.67;;;614.80;1536.00;;;;;;5095709;28;20383;-77
2021/08/17 05:28:56;;;;;;;13.38;4.25;;;614.80;1561.60;;;;;;5097184;28;20020;-75
2021/08/17 05:31:22;;;;;;;9.05;4.57;;;614.70;1561.60;;;;;;5097010;28;20026;-74
2021/08/17 05:33:48;;;;;;;10.55;4.60;;;;;;;;;;5096889;28;20042;-76
2021/08/17 05:36:14;;;;;;;9.13;4.10;;;;;;;;;;5096816;28;20415;-75
2021/08/17 05:38:40;;;;;;;11.13;3.90;;;614.90;1536.00;;;;;;5095462;28;20063;-75
2021/08/17 05:41:06;;;;;;;6.80;3.95;;;614.80;1561.60;;;;;;5096993;28;20048;-77
2021/08/17 05:43:32;;;;;;;7.07;4.05;;;614.80;1536.00;;;;;;5096501;28;20067;-75
2021/08/17 05:46:02;;;;;;;15.05;4.05;;;;;;;;;;5096597;28;20027;-76
2021/08/17 05:48:29;;;;;;;11.55;4.50;;;;;;;;;;5095368;28;20480;-75
2021/08/17 05:50:55;;;;;;;17.27;4.40;;;;;;;;;;5095274;28;20426;-77
2021/08/17 05:53:22;;;;;;;16.00;4.65;;;;;;;;;;5096501;28;20488;-76
2021/08/17 05:55:48;;;;;;;10.00;4.15;;;;;;;;;;5096403;28;20039;-76
2021/08/17 05:58:14;;;;;;;13.05;4.38;;;615.00;1510.40;;;;;;5096435;28;20031;-75
2021/08/17 06:00:40;;;;;;;9.30;4.07;;;614.90;1510.40;;;;;;5096636;28;20024;-74
2021/08/17 06:03:06;;;;;;;7.88;3.63;;;614.80;1536.00;;;;;;5096335;28;20393;-76
2021/08/17 06:05:32;;;;;;;10.98;4.32;;;615.00;1510.40;;;;;;5096498;28;20036;-74
2021/08/17 06:07:58;;;;;;;19.85;4.50;;;615.00;1510.40;;;;;;5095037;28;20024;-74
2021/08/17 06:10:23;;;;;;;9.05;4.22;;;614.90;1484.80;;;;;;5096156;28;20103;-76
2021/08/17 06:12:49;;;;;;;7.50;3.90;;;614.90;1510.40;;;;;;5096008;28;20048;-75
2021/08/17 06:15:15;;;;;;;9.88;3.78;;;614.90;1510.40;;;;;;5095135;28;20020;-73
2021/08/17 06:17:42;;;;;;;11.63;4.15;;;615.00;1484.80;;;;;;5096029;28;20077;-77
2021/08/17 06:20:09;;;;;;;17.50;3.92;;;614.90;1510.40;;;;;;5096265;28;20016;-75
2021/08/17 06:22:36;;;;;;;10.00;4.00;;;615.00;1484.80;;;;;;5095906;28;20031;-75
2021/08/17 06:25:02;;;;;;;14.15;4.28;;;615.00;1484.80;;;;;;5094167;28;20564;-74
2021/08/17 06:27:28;;;;;;;9.13;3.95;;;615.00;1484.80;;;;;;5095826;28;20048;-74
2021/08/17 06:29:54;;;;;;;9.07;4.00;;;615.00;1484.80;;;;;;5095844;28;20051;-74
2021/08/17 06:32:21;;;;;;;7.50;3.42;;;615.10;1459.20;;;;;;5095703;28;20450;-74
2021/08/17 06:34:47;;;;;;;9.88;3.63;;;615.10;1459.20;;;;;;5095709;28;20028;-75
2021/08/17 06:37:13;;;;;;;24.95;4.88;;;640.10;1433.60;;;;;;5095905;28;20020;-73
2021/08/17 06:39:39;;;;;;;8.38;3.92;;;640.20;1433.60;;;;;;5094298;28;20024;-75
2021/08/17 06:42:05;;;;;;;15.68;3.67;;;640.30;1408.00;;;;;;5095563;28;20024;-77
2021/08/17 06:44:32;;;;;;;10.00;3.70;;;640.20;1408.00;;;;;;5095436;28;20042;-76
2021/08/17 06:46:58;;;;;;;15.82;3.42;;;640.30;1408.00;;;;;;5095520;28;20020;-73
2021/08/17 06:49:24;;;;;;;11.02;3.53;;;640.30;1408.00;;;;;;5095453;28;20023;-77
2021/08/17 06:51:50;;;;;;;14.05;3.65;;;640.40;1382.40;;;;;;5095439;28;20507;-76
2021/08/17 06:54:16;;;;;;;9.82;3.58;;;640.40;1356.80;;;;;;5094121;28;20020;-76
2021/08/17 06:56:41;;;;;;;11.05;3.30;;;640.50;1356.80;;;;;;5094013;28;20021;-76
2021/08/17 06:59:07;;;;;;;6.68;3.08;;;640.50;1356.80;;;;;;5095237;28;20052;-74
2021/08/17 07:01:33;;;;;;;7.10;3.42;;;640.60;1356.80;;;;;;5095461;28;20407;-73
2021/08/17 07:03:59;;;;;;;5.63;3.40;;;640.80;1356.80;;;;;;5095095;28;20024;-73
2021/08/17 07:06:27;;;;;;;12.02;3.65;;;640.70;1356.80;;;;;;5095388;28;20020;-76
2021/08/17 07:08:55;;;;;;;11.13;4.20;;;640.70;1356.80;;;;;;5093714;28;20113;-76
2021/08/17 07:11:21;;;;;;;6.57;3.20;;;640.70;1356.80;;;;;;5093650;28;20059;-76
2021/08/17 07:13:47;;;;;;;11.13;3.65;;;640.60;1382.40;;;;;;5093508;28;20450;-78
2021/08/17 07:16:13;;;;;;;13.23;3.70;;;640.70;1382.40;;;;;;5094897;28;20028;-75
2021/08/17 07:18:39;;;;;;;44.92;6.07;;;640.70;1356.80;;;;;;5093488;28;20032;-74
2021/08/17 07:21:05;;;;;;;15.55;3.60;;;640.70;1356.80;;;;;;5094959;28;20028;-75
2021/08/17 07:23:31;;;;;;;10.38;3.13;;;640.70;1356.80;;;;;;5094634;28;20137;-76
2021/08/17 07:25:57;;;;;;;13.15;3.28;;;640.80;1356.80;;;;;;5094616;28;20028;-75
2021/08/17 07:28:23;;;;;;;12.80;3.60;;;640.90;1356.80;;;;;;5093354;28;20027;-74
2021/08/17 07:30:49;;;;;;;16.10;4.45;;;640.90;1356.80;;;;;;5093345;28;20388;-76
2021/08/17 07:33:15;;;;;;;8.55;3.70;;;640.80;1356.80;;;;;;5094582;28;20110;-74
2021/08/17 07:35:41;;;;;;;15.70;4.25;;;640.90;1356.80;;;;;;5093220;28;20492;-74
2021/08/17 07:38:06;;;;;;;10.30;3.53;;;665.60;1382.40;;;;;;5093178;28;20024;-75
2021/08/17 07:40:32;;;;;;;13.90;3.30;;;665.70;1382.40;;;;;;5093193;28;20020;-74
2021/08/17 07:42:58;;;;;;;8.70;3.15;;;640.90;1356.80;;;;;;5094392;28;20028;-74
2021/08/17 07:45:24;;;;;;;14.25;3.97;;;665.60;1408.00;;;;;;5092986;28;20032;-75
2021/08/17 07:47:50;;;;;;;10.23;3.20;;;665.60;1382.40;;;;;;5094322;28;20103;-74
2021/08/17 07:50:16;;;;;;;10.23;3.33;;;640.90;1382.40;;;;;;5094542;28;20103;-73
2021/08/17 07:52:43;;;;;;;18.67;3.42;;;665.60;1408.00;;;;;;5092901;28;20020;-76
2021/08/17 07:55:12;;;;;;;14.13;3.33;;;665.80;1382.40;;;;;;5092970;28;20028;-74
2021/08/17 07:57:39;;;;;;;15.93;3.50;;;665.70;1382.40;;;;;;5092863;28;20028;-76
2021/08/17 08:00:08;;;;;;;9.32;3.50;;;665.70;1382.40;;;;;;5092783;28;20032;-73
2021/08/17 08:02:34;;;;;;;15.63;3.35;;;665.70;1382.40;;;;;;5093950;28;20024;-74
2021/08/17 08:05:00;;;;;;;12.30;3.08;;;665.60;1356.80;;;;;;5094164;28;20140;-74
2021/08/17 08:07:26;;;;;;;13.25;3.38;;;665.60;1356.80;;;;;;5092747;28;20107;-73
2021/08/17 08:09:52;;;;;;;29.35;3.53;;;665.70;1356.80;;;;;;5092644;28;20028;-76
2021/08/17 08:12:18;;;;;;;5.63;2.55;;;665.70;1331.20;;;;;;5093676;28;20047;-74
2021/08/17 08:14:44;;;;;;;6.93;2.85;;;665.70;1356.80;;;;;;5092620;28;20105;-72
2021/08/17 08:17:11;;;;;;;10.38;3.22;;;665.80;1331.20;;;;;;5094043;28;20027;-76
2021/08/17 08:19:37;;;;;;;15.05;3.05;;;665.90;1331.20;;;;;;5092503;28;20024;-74
2021/08/17 08:22:05;;;;;;;11.63;2.83;;;665.90;1331.20;;;;;;5093697;28;20024;-75
2021/08/17 08:24:32;;;;;;;24.70;3.33;;;666.00;1331.20;;;;;;5092373;28;20036;-76
2021/08/17 08:26:58;;;;;;;9.50;2.53;;;666.00;1305.60;;;;;;5093688;28;20013;-75
2021/08/17 08:29:23;;;;;;;13.93;2.47;;;666.00;1331.20;;;;;;5093699;28;20093;-75
2021/08/17 08:31:49;;;;;;;10.82;2.40;;;665.90;1331.20;;;;;;5093632;28;20024;-73
2021/08/17 08:34:15;;;;;;;20.27;3.20;;;666.00;1331.20;;;;;;5093862;28;20070;-73
2021/08/17 08:36:41;;;;;;;11.85;2.50;;;666.00;1356.80;;;;;;5093170;28;20438;-75
2021/08/17 08:39:07;;;;;;;16.55;3.20;;;666.00;1331.20;;;;;;5092268;28;20020;-73
2021/08/17 08:41:33;;;;;;;17.02;2.88;;;666.00;1331.20;;;;;;5093893;28;20024;-76
2021/08/17 08:44:00;;;;;;;10.20;2.50;;;666.00;1331.20;;;;;;5093458;28;20070;-75
2021/08/17 08:46:28;;;;;;;18.23;3.03;;;665.90;1331.20;;;;;;5092204;28;20028;-74
2021/08/17 08:48:54;;;;;;;14.65;2.97;;;665.90;1331.20;;;;;;5093507;28;20019;-77
2021/08/17 08:51:21;;;;;;;12.75;2.95;;;666.00;1331.20;;;;;;5093494;28;20103;-76
2021/08/17 08:53:48;;;;;;;10.23;2.50;;;666.00;1331.20;;;;;;5093435;28;20024;-75
2021/08/17 08:56:14;;;;;;;11.75;2.63;;;666.10;1331.20;;;;;;5093740;28;20031;-74
2021/08/17 08:58:43;;;;;;;10.77;2.88;;;666.10;1331.20;;;;;;5093417;28;20077;-76
2021/08/17 09:01:11;;;;;;;13.13;3.50;;;666.10;1331.20;;;;;;5092132;28;20020;-75
2021/08/17 09:03:47;;;;;;;8.75;2.75;;;666.10;1331.20;;;;;;5093283;28;20020;-75
2021/08/17 09:06:31;;;;;;;12.63;2.90;;;666.10;1331.20;;;;;;5092169;28;20384;-75
2021/08/17 09:09:05;;;;;;;13.60;3.05;;;666.10;1356.80;;;;;;5092078;28;20024;-76
2021/08/17 09:11:31;;;;;;;13.88;3.08;;;666.00;1356.80;;;;;;5093638;28;20016;-75
2021/08/17 09:14:17;;;;;;;9.90;2.80;;;666.00;1356.80;;;;;;5091747;28;20104;-74
2021/08/17 09:16:44;;;;;;;9.50;2.80;;;666.00;1356.80;;;;;;5093297;28;20099;-77
2021/08/17 09:19:37;;;;;;;17.60;2.83;;;666.00;1331.20;;;;;;5093744;28;20082;-78
2021/08/17 09:22:23;;;;;;;10.65;2.42;;;665.80;1356.80;;;;;;5093512;28;20128;-75
2021/08/17 09:24:53;;;;;;;18.88;3.33;;;665.80;1356.80;;;;;;5093273;28;20043;-73
2021/08/17 09:27:24;;;;;;;13.52;2.55;;;665.80;1356.80;;;;;;5091869;28;20387;-76
2021/08/17 09:30:19;;;;;;;10.07;2.78;;;665.70;1356.80;;;;;;5093146;28;20028;-75
2021/08/17 09:32:53;;;;;;;7.75;2.40;;;665.70;1356.80;;;;;;5091644;28;20157;-76
2021/08/17 09:35:21;;;;;;;14.90;2.78;;;665.70;1356.80;;;;;;5093052;28;20468;-73
2021/08/17 09:38:08;;;;;;;38.00;4.55;;;665.70;1382.40;;;;;;5093117;28;20069;-76
2021/08/17 09:40:35;;;;;;;10.18;2.65;;;665.60;1356.80;;;;;;5092115;28;20028;-73
2021/08/17 09:43:18;;;;;;;8.68;2.72;;;665.70;1356.80;;;;;;5093238;28;20024;-77
2021/08/17 09:45:46;;;;;;;19.38;2.97;;;665.70;1356.80;;;;;;5091660;28;20032;-75
2021/08/17 09:48:13;;;;;;;14.05;2.95;;;665.70;1356.80;;;;;;5092996;28;20028;-75
2021/08/17 09:50:42;;;;;;;11.88;3.00;;;665.60;1356.80;;;;;;5095784;28;20024;-76
2021/08/17 09:53:17;;;;;;;9.20;2.50;;;665.70;1356.80;;;;;;5096618;28;20024;-75
2021/08/17 09:55:55;;;;;;;12.10;2.38;;;665.60;1356.80;;;;;;5096459;28;20381;-75
2021/08/17 09:58:33;;;;;;;7.70;2.97;;;665.60;1356.80;;;;;;5096462;28;20027;-76
2021/08/17 10:01:06;;;;;;;28.75;3.95;;;665.60;1382.40;;;;;;5096677;28;20020;-74
2021/08/17 10:03:33;;;;;;;11.02;2.97;;;665.70;1382.40;;;;;;5095042;28;20020;-76
2021/08/17 10:06:00;;;;;;;10.18;3.08;;;665.70;1382.40;;;;;;5096274;28;20494;-75
2021/08/17 10:08:28;;;;;;;12.45;3.13;;;665.70;1382.40;;;;;;5094964;28;20077;-74
2021/08/17 10:10:55;;;;;;;19.17;3.00;;;665.70;1356.80;;;;;;5096242;28;20549;-76
2021/08/17 10:13:24;;;;;;;39.70;5.05;;;665.70;1331.20;;;;;;5095953;28;20105;-76
2021/08/17 10:15:51;;;;;;;9.43;2.92;;;665.60;1356.80;;;;;;5094874;28;20017;-77
2021/08/17 10:18:21;;;;;;;11.65;2.90;;;640.80;1305.60;;;;;;5094832;28;20036;-76
2021/08/17 10:20:50;;;;;;;13.82;3.35;;;665.60;1331.20;;;;;;5096030;28;20020;-74
2021/08/17 10:23:17;;;;;;;75.60;5.55;;;640.80;1331.20;;;;;;5094644;28;20381;-76
2021/08/17 10:25:52;;;;;;;17.02;3.15;;;640.80;1331.20;;;;;;5095796;28;20036;-74
2021/08/17 10:28:27;;;;;;;17.42;3.72;;;640.80;1331.20;;;;;;5095954;28;20484;-76
2021/08/17 10:30:54;;;;;;;11.30;2.92;;;665.60;1356.80;;;;;;5096101;28;20032;-75
2021/08/17 10:33:49;;;;;;;23.40;4.10;;;665.60;1356.80;;;;;;5095791;28;20078;-77
2021/08/17 10:36:36;;;;;;;13.63;3.22;;;665.60;1356.80;;;;;;5095785;28;20020;-74
2021/08/17 10:39:16;;;;;;;10.63;3.30;;;640.80;1331.20;;;;;;5095990;28;20028;-76
2021/08/17 10:41:43;;;;;;;6.68;2.85;;;640.70;1331.20;;;;;;5095888;28;20056;-75
2021/08/17 10:44:12;;;;;;;22.58;3.13;;;640.60;1356.80;;;;;;5095517;28;20031;-75
2021/08/17 10:46:43;;;;;;;7.78;2.63;;;640.50;1356.80;;;;;;5094246;28;20028;-77
2021/08/17 10:49:32;;;;;;;9.07;2.80;;;640.50;1356.80;;;;;;5095814;28;20426;-73
2021/08/17 10:52:07;;;;;;;5.25;2.95;;;640.40;1382.40;;;;;;5094235;28;20035;-74
2021/08/17 10:54:34;;;;;;;10.20;2.97;;;640.30;1356.80;;;;;;5095082;28;20032;-76
2021/08/17 10:57:21;;;;;;;9.07;2.70;;;640.30;1356.80;;;;;;5095292;28;20029;-76
2021/08/17 10:59:50;;;;;;;11.93;2.53;;;640.20;1382.40;;;;;;5093596;28;20058;-76
2021/08/17 11:02:23;;;;;;;5.57;2.95;;;640.20;1382.40;;;;;;5095171;28;20031;-75
2021/08/17 11:04:50;;;;;;;7.88;2.90;;;640.20;1382.40;;;;;;5093808;28;20043;-76
2021/08/17 11:07:26;;;;;;;6.80;2.33;;;640.20;1408.00;;;;;;5095354;28;20016;-77
2021/08/17 11:09:54;;;;;;;5.38;2.60;;;640.20;1356.80;;;;;;5093781;28;20118;-75
2021/08/17 11:12:20;;;;;;;8.68;2.35;;;640.30;1382.40;;;;;;5094795;28;20032;-75
2021/08/17 11:14:48;;;;;;;11.63;3.10;;;640.30;1382.40;;;;;;5095054;28;20028;-74
2021/08/17 11:17:16;;;;;;;12.40;2.50;;;640.50;1382.40;;;;;;5095004;28;20048;-74
2021/08/17 11:19:48;;;;;;;7.32;2.53;;;640.50;1382.40;;;;;;5094962;28;20050;-74
2021/08/17 11:22:16;;;;;;;15.80;2.80;;;640.50;1356.80;;;;;;5095200;28;20012;-75
2021/08/17 11:24:47;;;;;;;6.03;2.50;;;640.30;1382.40;;;;;;5094731;28;20097;-73
2021/08/17 11:27:21;;;;;;;10.23;2.38;;;640.30;1382.40;;;;;;5095093;28;20468;-74
2021/08/17 11:29:52;;;;;;;5.63;2.15;;;640.30;1408.00;;;;;;5094736;28;20062;-73
2021/08/17 11:32:37;;;;;;;5.78;2.35;;;640.30;1408.00;;;;;;5094718;28;20111;-74
2021/08/17 11:35:09;;;;;;;24.50;4.07;;;640.30;1382.40;;;;;;5093315;28;20392;-75
2021/08/17 11:37:36;;;;;;;8.27;2.20;;;640.20;1382.40;;;;;;5094552;28;20016;-77
2021/08/17 11:40:06;;;;;;;78.25;6.32;;;640.20;1382.40;;;;;;5094472;28;20024;-76
2021/08/17 11:42:39;;;;;;;8.85;2.58;;;640.20;1382.40;;;;;;5094363;28;20016;-77
2021/08/17 11:45:09;;;;;;;8.90;1.90;;;640.30;1382.40;;;;;;5093102;28;20036;-75
2021/08/17 11:47:37;;;;;;;13.38;2.45;;;640.30;1382.40;;;;;;5092989;28;20122;-77
2021/08/17 11:50:08;;;;;;;57.95;4.88;;;640.30;1382.40;;;;;;5094546;28;20159;-75
2021/08/17 11:52:36;;;;;;;7.25;1.85;;;640.20;1382.40;;;;;;5092992;28;20146;-75
2021/08/17 11:55:11;;;;;;;11.95;2.47;;;640.20;1408.00;;;;;;5094542;28;20035;-77
2021/08/17 11:57:38;;;;;;;10.32;2.40;;;640.30;1382.40;;;;;;5094226;28;20098;-76
2021/08/17 12:00:12;;;;;;;7.50;1.83;;;640.30;1382.40;;;;;;5092913;28;20039;-76
2021/08/17 12:02:43;;;;;;;4.40;1.73;;;640.20;1382.40;;;;;;5092871;28;20530;-76
2021/08/17 12:05:21;;;;;;;33.33;4.28;;;640.30;1356.80;;;;;;5094299;28;20032;-76
2021/08/17 12:07:50;;;;;;;15.40;1.88;;;640.30;1331.20;;;;;;5094031;28;20118;-76
2021/08/17 12:10:29;;;;;;;4.13;1.48;;;640.20;1331.20;;;;;;5093998;28;20353;-76
2021/08/17 12:12:57;;;;;;;3.90;1.60;;;640.20;1331.20;;;;;;5092982;28;20031;-77
2021/08/17 12:15:46;;;;;;;16.10;1.85;;;640.20;1331.20;;;;;;5093845;28;20385;-77
2021/08/17 12:18:19;;;;;;;6.43;1.52;;;640.00;1331.20;;;;;;5086006;28;20076;-75
2021/08/17 12:20:54;;;;;;;4.03;1.20;;;;;;;;;;5093874;28;20024;-76